createdAt,value
2023-05-24T00:00:19.123Z,145092.22
2023-05-24T00:02:46.232Z,144953.94
2023-05-24T00:05:14.778Z,145031.53
2023-05-24T00:07:41.986Z,145072.75
2023-05-24T00:10:10.069Z,145041.22
2023-05-24T00:12:37.164Z,145082.47
2023-05-24T00:15:04.701Z,145071.56
2023-05-24T00:17:32.148Z,145053.38
2023-05-24T00:19:59.700Z,145048.53
2023-05-24T00:22:26.812Z,145092.22
2023-05-24T00:24:53.893Z,145032.72
2023-05-24T00:27:20.933Z,144993.94
2023-05-24T00:29:48.010Z,145036.38
2023-05-24T00:32:15.191Z,145007.28
2023-05-24T00:34:42.284Z,145015.78
2023-05-24T00:37:12.900Z,144987.91
2023-05-24T00:39:40.012Z,144978.16
2023-05-24T00:42:07.490Z,144890.88
2023-05-24T00:44:34.607Z,144947.88
2023-05-24T00:47:01.720Z,144936.94
2023-05-24T00:49:29.253Z,144934.53
2023-05-24T00:51:56.478Z,144932.09
2023-05-24T00:54:26.154Z,144920.00
2023-05-24T00:56:54.699Z,144907.88
2023-05-24T00:59:22.652Z,144900.56
2023-05-24T01:01:50.465Z,144876.34
2023-05-24T01:04:17.743Z,144827.84
2023-05-24T01:07:21.856Z,144847.28
2023-05-24T01:10:01.017Z,144830.28
2023-05-24T01:12:56.316Z,144776.94
2023-05-24T01:15:35.812Z,144752.72
2023-05-24T01:18:15.533Z,144701.84
2023-05-24T01:20:44.064Z,144715.19
2023-05-24T01:23:41.890Z,144728.50
2023-05-24T01:26:18.115Z,144733.34
2023-05-24T01:28:47.359Z,144726.06
2023-05-24T01:31:17.006Z,144705.44
2023-05-24T01:33:44.805Z,144688.53
2023-05-24T01:36:11.908Z,144670.34
2023-05-24T01:38:41.495Z,144629.13
2023-05-24T01:41:26.673Z,144665.47
2023-05-24T01:44:07.472Z,144583.09
2023-05-24T01:46:38.854Z,144604.88
2023-05-24T01:49:22.297Z,144665.47
2023-05-24T01:52:07.299Z,144641.22
2023-05-24T01:54:39.098Z,144590.34
2023-05-24T01:57:09.056Z,144608.50
2023-05-24T01:59:39.740Z,144590.34
2023-05-24T02:02:06.841Z,144563.69
2023-05-24T02:04:34.007Z,144566.13
2023-05-24T02:07:01.050Z,144572.19
2023-05-24T02:09:28.088Z,144546.78
2023-05-24T02:11:55.260Z,144521.34
2023-05-24T02:14:24.381Z,144531.00
2023-05-24T02:16:51.509Z,144541.88
2023-05-24T02:19:19.610Z,144508.00
2023-05-24T02:21:46.793Z,144469.28
2023-05-24T02:24:14.948Z,144510.44
2023-05-24T02:26:42.209Z,144491.03
2023-05-24T02:29:09.386Z,144469.28
2023-05-24T02:31:36.975Z,144425.69
2023-05-24T02:34:04.198Z,144423.25
2023-05-24T02:36:32.593Z,144403.91
2023-05-24T02:38:59.684Z,144439.00
2023-05-24T02:41:26.857Z,144409.94
2023-05-24T02:43:53.976Z,144442.66
2023-05-24T02:46:21.146Z,144437.81
2023-05-24T02:48:49.600Z,144425.69
2023-05-24T02:51:17.091Z,144388.19
2023-05-24T02:53:45.298Z,144403.91
2023-05-24T02:56:13.934Z,144386.94
2023-05-24T02:58:41.944Z,144430.53
2023-05-24T03:01:09.073Z,144445.06
2023-05-24T03:03:36.819Z,144457.16
2023-05-24T03:06:09.572Z,144478.97
2023-05-24T03:08:37.408Z,144431.72
2023-05-24T03:11:05.589Z,144514.06
2023-05-24T03:13:34.486Z,144510.44
2023-05-24T03:16:02.087Z,144556.47
2023-05-24T03:18:30.161Z,144544.34
2023-05-24T03:20:57.313Z,144584.31
2023-05-24T03:23:24.398Z,144594.00
2023-05-24T03:25:51.483Z,144614.56
2023-05-24T03:28:19.016Z,144551.63
2023-05-24T03:30:46.493Z,144541.88
2023-05-24T03:33:14.778Z,144573.38
2023-05-24T03:35:42.012Z,144620.63
2023-05-24T03:38:12.847Z,144554.00
2023-05-24T03:40:43.927Z,144643.66
2023-05-24T03:43:18.177Z,144580.66
2023-05-24T03:45:52.476Z,144597.63
2023-05-24T03:48:22.690Z,144619.44
2023-05-24T03:50:51.626Z,144495.88
2023-05-24T03:53:19.568Z,144537.06
2023-05-24T03:55:48.765Z,144566.13
2023-05-24T03:58:15.829Z,144641.22
2023-05-24T04:00:43.154Z,144636.38
2023-05-24T04:03:12.115Z,144617.00
2023-05-24T04:05:39.941Z,144629.13
2023-05-24T04:08:07.633Z,144638.81
2023-05-24T04:10:38.016Z,144577.03
2023-05-24T04:13:05.167Z,144625.47
2023-05-24T04:15:37.853Z,144682.44
2023-05-24T04:18:05.686Z,144692.16
2023-05-24T04:20:35.052Z,144692.16
2023-05-24T04:23:02.173Z,144728.50
2023-05-24T04:25:30.376Z,144750.28
2023-05-24T04:27:57.438Z,144776.94
2023-05-24T04:30:25.103Z,144764.88
2023-05-24T04:32:52.697Z,144776.94
2023-05-24T04:35:20.339Z,144810.91
2023-05-24T04:37:50.086Z,144831.50
2023-05-24T04:40:20.795Z,144826.66
2023-05-24T04:42:47.870Z,144830.28
2023-05-24T04:45:15.069Z,144718.78
2023-05-24T04:47:42.430Z,144835.13
2023-05-24T04:50:09.934Z,144915.16
2023-05-24T04:52:36.977Z,144907.88
2023-05-24T04:55:04.368Z,144878.78
2023-05-24T04:57:31.521Z,144887.22
2023-05-24T04:59:58.941Z,144844.81
2023-05-24T05:02:27.096Z,144895.72
2023-05-24T05:04:54.450Z,144927.25
2023-05-24T05:07:21.500Z,144940.59
2023-05-24T05:09:48.750Z,144968.47
2023-05-24T05:12:16.027Z,144978.16
2023-05-24T05:14:43.280Z,144983.06
2023-05-24T05:17:10.412Z,144915.16
2023-05-24T05:19:37.494Z,144987.91
2023-05-24T05:22:04.682Z,144986.66
2023-05-24T05:24:31.725Z,145061.88
2023-05-24T05:26:58.846Z,145040.03
2023-05-24T05:29:25.918Z,145105.50
2023-05-24T05:31:53.124Z,145043.69
2023-05-24T05:34:21.193Z,145151.66
2023-05-24T05:36:48.267Z,145184.41
2023-05-24T05:39:15.591Z,145173.44
2023-05-24T05:41:45.968Z,145157.69
2023-05-24T05:44:14.973Z,145217.16
2023-05-24T05:46:43.970Z,145274.25
2023-05-24T05:49:11.665Z,145235.34
2023-05-24T05:51:39.122Z,145323.97
2023-05-24T05:54:06.598Z,145225.66
2023-05-24T05:56:33.692Z,145201.41
2023-05-24T05:59:00.962Z,145215.94
2023-05-24T06:01:27.992Z,145230.50
2023-05-24T06:03:55.263Z,145287.56
2023-05-24T06:06:22.479Z,145279.09
2023-05-24T06:08:49.629Z,145351.94
2023-05-24T06:11:16.868Z,145366.50
2023-05-24T06:13:44.031Z,145373.75
2023-05-24T06:16:11.248Z,145423.53
2023-05-24T06:18:38.535Z,145446.59
2023-05-24T06:21:06.646Z,145532.81
2023-05-24T06:23:33.673Z,145518.25
2023-05-24T06:26:03.832Z,145604.50
2023-05-24T06:28:30.893Z,145512.19
2023-05-24T06:30:57.948Z,145512.19
2023-05-24T06:33:25.007Z,145524.31
2023-05-24T06:35:52.044Z,145547.44
2023-05-24T06:38:19.086Z,145626.38
2023-05-24T06:40:46.211Z,145521.91
2023-05-24T06:43:13.666Z,145560.75
2023-05-24T06:45:41.678Z,145565.66
2023-05-24T06:48:11.242Z,145577.78
2023-05-24T06:50:40.344Z,145665.25
2023-05-24T06:53:09.841Z,145677.41
2023-05-24T06:55:37.486Z,145670.09
2023-05-24T06:58:05.477Z,145621.53
2023-05-24T07:00:32.560Z,145619.06
2023-05-24T07:02:59.651Z,145660.38
2023-05-24T07:05:26.740Z,145688.31
2023-05-24T07:07:53.758Z,145769.81
2023-05-24T07:10:21.014Z,145830.63
2023-05-24T07:12:48.063Z,145860.97
2023-05-24T07:15:15.230Z,145848.84
2023-05-24T07:17:42.318Z,145905.97
2023-05-24T07:20:10.658Z,145888.94
2023-05-24T07:22:37.752Z,145901.09
2023-05-24T07:25:05.504Z,145886.53
2023-05-24T07:27:32.562Z,146000.84
2023-05-24T07:29:59.705Z,146048.25
2023-05-24T07:32:26.880Z,146072.63
2023-05-24T07:34:53.987Z,146034.88
2023-05-24T07:37:24.006Z,146060.44
2023-05-24T07:39:52.093Z,146037.31
2023-05-24T07:42:19.364Z,146077.53
2023-05-24T07:44:46.855Z,146090.91
2023-05-24T07:47:13.920Z,146103.06
2023-05-24T07:49:41.015Z,146088.47
2023-05-24T07:52:08.474Z,146081.19
2023-05-24T07:54:35.518Z,146093.31
2023-05-24T07:57:02.828Z,146079.94
2023-05-24T07:59:30.068Z,146078.72
2023-05-24T08:02:01.678Z,146047.06
2023-05-24T08:04:29.088Z,145898.69
2023-05-24T08:06:57.831Z,145963.16
2023-05-24T08:09:25.020Z,146042.19
2023-05-24T08:11:52.143Z,146059.22
2023-05-24T08:14:19.284Z,146042.19
2023-05-24T08:16:46.491Z,146005.69
2023-05-24T08:19:14.071Z,145991.13
2023-05-24T08:21:42.384Z,146017.88
2023-05-24T08:24:09.733Z,146088.47
2023-05-24T08:26:36.919Z,146156.59
2023-05-24T08:29:05.027Z,146149.28
2023-05-24T08:31:33.386Z,146212.56
2023-05-24T08:34:01.780Z,146154.19
2023-05-24T08:36:28.920Z,146093.31
2023-05-24T08:38:56.151Z,146103.06
2023-05-24T08:41:24.040Z,146101.84
2023-05-24T08:43:52.226Z,146020.28
2023-05-24T08:46:19.672Z,146000.84
2023-05-24T08:48:48.126Z,146087.25
2023-05-24T08:51:16.593Z,145998.38
2023-05-24T08:53:49.594Z,146060.44
2023-05-24T08:56:18.376Z,146229.63
2023-05-24T08:58:47.026Z,146373.28
2023-05-24T09:01:16.537Z,146445.16
2023-05-24T09:03:46.801Z,146529.22
2023-05-24T09:06:17.488Z,146481.69
2023-05-24T09:08:45.456Z,146426.88
2023-05-24T09:11:15.212Z,146495.09
2023-05-24T09:13:45.603Z,146361.09
2023-05-24T09:16:13.106Z,146331.84
2023-05-24T09:18:42.604Z,146453.66
2023-05-24T09:21:11.775Z,146504.81
2023-05-24T09:23:40.674Z,146436.63
2023-05-24T09:26:09.668Z,146543.81
2023-05-24T09:28:38.012Z,146492.66
2023-05-24T09:31:07.720Z,146441.47
2023-05-24T09:33:35.359Z,146381.78
2023-05-24T09:36:04.725Z,146407.34
2023-05-24T09:38:31.978Z,146457.34
2023-05-24T09:41:03.090Z,146506.06
2023-05-24T09:43:34.689Z,146563.31
2023-05-24T09:46:05.612Z,146526.75
2023-05-24T09:48:32.800Z,146545.03
2023-05-24T09:51:05.110Z,146605.94
2023-05-24T09:53:36.577Z,146637.59
2023-05-24T09:56:05.374Z,146496.28
2023-05-24T09:58:35.731Z,146473.16
2023-05-24T10:01:08.024Z,146672.97
2023-05-24T10:03:37.335Z,146621.78
2023-05-24T10:06:08.101Z,146643.72
2023-05-24T10:08:36.554Z,146612.03
2023-05-24T10:11:06.493Z,146683.94
2023-05-24T10:13:35.786Z,146702.22
2023-05-24T10:16:03.826Z,146607.19
2023-05-24T10:18:31.273Z,146748.59
2023-05-24T10:20:59.511Z,146772.94
2023-05-24T10:23:30.360Z,146722.97
2023-05-24T10:26:06.715Z,146690.03
2023-05-24T10:28:54.898Z,146731.50
2023-05-24T10:31:37.155Z,146775.41
2023-05-24T10:34:08.675Z,146738.84
2023-05-24T10:36:39.908Z,146850.97
2023-05-24T10:39:11.167Z,146829.00
2023-05-24T10:41:42.041Z,146858.31
2023-05-24T10:44:13.452Z,146775.41
2023-05-24T10:47:09.887Z,146671.75
2023-05-24T10:49:39.638Z,146825.34
2023-05-24T10:52:10.712Z,146783.91
2023-05-24T10:54:39.932Z,146687.56
2023-05-24T10:57:10.097Z,146712.03
2023-05-24T10:59:39.205Z,146616.91
2023-05-24T11:02:16.269Z,146694.91
2023-05-24T11:04:46.796Z,146668.09
2023-05-24T11:07:15.838Z,146615.72
2023-05-24T11:09:46.503Z,146692.44
2023-05-24T11:12:17.298Z,146769.28
2023-05-24T11:14:53.794Z,146804.66
2023-05-24T11:17:22.826Z,146775.41
2023-05-24T11:19:52.990Z,146790.03
2023-05-24T11:22:25.272Z,146779.03
2023-05-24T11:24:53.586Z,146810.72
2023-05-24T11:27:20.908Z,146948.50
2023-05-24T11:29:48.790Z,147043.69
2023-05-24T11:32:18.146Z,147005.88
2023-05-24T11:34:46.927Z,146990.00
2023-05-24T11:37:17.100Z,146968.06
2023-05-24T11:39:51.209Z,146875.34
2023-05-24T11:42:18.437Z,146783.91
2023-05-24T11:44:48.377Z,146743.72
2023-05-24T11:47:15.715Z,146726.63
2023-05-24T11:49:42.810Z,146526.75
2023-05-24T11:52:09.982Z,146481.69
2023-05-24T11:54:38.774Z,146463.41
2023-05-24T11:57:06.210Z,146300.25
2023-05-24T11:59:35.739Z,146353.78
2023-05-24T12:02:05.437Z,146297.78
2023-05-24T12:04:34.619Z,146319.69
2023-05-24T12:07:03.082Z,146322.13
2023-05-24T12:09:30.236Z,146302.66
2023-05-24T12:12:01.931Z,146205.28
2023-05-24T12:14:33.654Z,146185.78
2023-05-24T12:17:01.239Z,146290.47
2023-05-24T12:19:36.466Z,146380.56
2023-05-24T12:22:11.482Z,146527.97
2023-05-24T12:24:38.603Z,146634.00
2023-05-24T12:27:07.562Z,146623.00
2023-05-24T12:29:37.693Z,146590.09
2023-05-24T12:32:05.369Z,146473.16
2023-05-24T12:34:32.580Z,146520.69
2023-05-24T12:37:00.054Z,146515.81
2023-05-24T12:39:33.903Z,146414.72
2023-05-24T12:42:02.293Z,146435.41
2023-05-24T12:44:36.392Z,146400.03
2023-05-24T12:47:08.332Z,146458.53
2023-05-24T12:49:35.876Z,146517.00
2023-05-24T12:52:03.628Z,146546.22
2023-05-24T12:54:31.112Z,146436.63
2023-05-24T12:57:03.252Z,146524.34
2023-05-24T12:59:30.830Z,146687.56
2023-05-24T13:01:58.233Z,146646.13
2023-05-24T13:04:30.497Z,146798.56
2023-05-24T13:06:57.675Z,146850.97
2023-05-24T13:09:26.113Z,146777.81
2023-05-24T13:11:55.088Z,146803.44
2023-05-24T13:14:22.333Z,146890.00
2023-05-24T13:16:49.620Z,146880.22
2023-05-24T13:19:17.260Z,146902.16
2023-05-24T13:21:44.871Z,146931.47
2023-05-24T13:24:15.627Z,146959.50
2023-05-24T13:26:43.056Z,146859.50
2023-05-24T13:31:41.080Z,146553.56
2023-05-24T13:34:11.827Z,146616.91
2023-05-24T13:36:39.162Z,146523.09
2023-05-24T13:41:40.840Z,146602.31
2023-05-24T13:44:08.632Z,146760.75
2023-05-24T13:46:36.369Z,146657.13
2023-05-24T13:49:04.343Z,146838.75
2023-05-24T13:51:31.584Z,146838.75
2023-05-24T13:53:59.549Z,146643.72
2023-05-24T13:56:32.442Z,146792.44
2023-05-24T13:59:01.099Z,146920.47
2023-05-24T14:01:28.619Z,146959.50
2023-05-24T14:03:55.710Z,147005.88
2023-05-24T14:06:22.908Z,147036.41
2023-05-24T14:08:49.970Z,146924.13
2023-05-24T14:11:17.134Z,147063.19
2023-05-24T14:16:14.727Z,147073.00
2023-05-24T14:18:41.922Z,147092.50
2023-05-24T14:21:09.259Z,146983.88
2023-05-24T14:23:36.379Z,147094.91
2023-05-24T14:28:44.571Z,147037.59
2023-05-24T14:31:11.854Z,147069.31
2023-05-24T14:33:38.993Z,146902.16
2023-05-24T14:36:06.447Z,146914.38
2023-05-24T14:38:33.726Z,147073.00
2023-05-24T14:41:01.582Z,147126.66
2023-05-24T14:43:28.805Z,147132.78
2023-05-24T14:45:56.414Z,147063.19
2023-05-24T14:48:23.552Z,147001.00
2023-05-24T14:50:50.694Z,146933.88
2023-05-24T14:53:17.821Z,146929.00
2023-05-24T14:55:45.224Z,146894.88
2023-05-24T14:58:12.574Z,146880.22
2023-05-24T15:00:41.318Z,146911.91
2023-05-24T15:03:09.002Z,147011.97
2023-05-24T15:05:36.565Z,147165.72
2023-05-24T15:08:05.654Z,147253.63
2023-05-24T15:10:33.284Z,146980.22
2023-05-24T15:13:01.286Z,146853.44
2023-05-24T15:15:28.765Z,146937.53
2023-05-24T15:17:57.553Z,147004.69
2023-05-24T15:20:26.053Z,146863.19
2023-05-24T15:23:10.599Z,146905.84
2023-05-24T15:25:38.032Z,146842.44
2023-05-24T15:28:05.457Z,146953.38
2023-05-24T15:30:32.590Z,146843.63
2023-05-24T15:32:59.632Z,146858.31
2023-05-24T15:35:29.666Z,146749.78
2023-05-24T15:37:56.953Z,146721.75
2023-05-24T15:40:24.628Z,146631.53
2023-05-24T15:42:52.767Z,146565.75
2023-05-24T15:45:20.014Z,146590.09
2023-05-24T15:47:47.290Z,146548.69
2023-05-24T15:50:14.439Z,146457.34
2023-05-24T15:52:41.561Z,146529.22
2023-05-24T15:55:09.132Z,146563.31
2023-05-24T15:57:36.191Z,146475.59
2023-05-24T16:00:03.911Z,146453.66
2023-05-24T16:02:39.241Z,146461.00
2023-05-24T16:05:06.957Z,146451.25
2023-05-24T16:07:34.231Z,146443.94
2023-05-24T16:10:01.336Z,146336.75
2023-05-24T16:12:30.159Z,146317.25
2023-05-24T16:14:59.830Z,146385.44
2023-05-24T16:17:27.065Z,146232.06
2023-05-24T16:19:54.367Z,146212.56
2023-05-24T16:22:21.646Z,146342.84
2023-05-24T16:24:48.799Z,146383.03
2023-05-24T16:27:16.031Z,146380.56
2023-05-24T16:29:45.458Z,146344.03
2023-05-24T16:32:14.039Z,146418.34
2023-05-24T16:34:55.560Z,146429.34
2023-05-24T16:37:23.690Z,146465.88
2023-05-24T16:39:51.003Z,146402.50
2023-05-24T16:42:18.058Z,146350.13
2023-05-24T16:44:45.263Z,146383.03
2023-05-24T16:47:12.759Z,146268.59
2023-05-24T16:49:40.086Z,146264.91
2023-05-24T16:52:07.411Z,146295.31
2023-05-24T16:54:34.559Z,146309.97
2023-05-24T16:57:01.747Z,146281.97
2023-05-24T16:59:28.808Z,146297.78
2023-05-24T17:01:55.963Z,146195.56
2023-05-24T17:04:23.116Z,146208.94
2023-05-24T17:06:50.271Z,146285.59
2023-05-24T17:09:17.626Z,146246.66
2023-05-24T17:11:44.821Z,146271.00
2023-05-24T17:14:11.875Z,146347.69
2023-05-24T17:16:39.497Z,146297.78
2023-05-24T17:19:06.653Z,146305.09
2023-05-24T17:21:33.722Z,146305.09
2023-05-24T17:24:00.911Z,146249.06
2023-05-24T17:26:28.060Z,146201.63
2023-05-24T17:28:55.094Z,146230.81
2023-05-24T17:31:22.375Z,146256.41
2023-05-24T17:33:49.527Z,146223.53
2023-05-24T17:36:16.725Z,146250.34
2023-05-24T17:38:43.851Z,146256.41
2023-05-24T17:41:10.941Z,146200.44
2023-05-24T17:43:40.037Z,146230.81
2023-05-24T17:46:07.679Z,146295.31
2023-05-24T17:48:39.589Z,146291.72
2023-05-24T17:51:08.222Z,146196.75
2023-05-24T17:53:37.084Z,146257.59
2023-05-24T17:56:05.300Z,146261.25
2023-05-24T17:58:35.704Z,146188.25
2023-05-24T18:01:05.299Z,146180.91
2023-05-24T18:03:33.746Z,146266.13
2023-05-24T18:06:01.309Z,146229.63
2023-05-24T18:08:28.367Z,146232.06
2023-05-24T18:10:55.697Z,146218.69
2023-05-24T18:13:22.767Z,146219.88
2023-05-24T18:15:50.185Z,146232.06
2023-05-24T18:18:17.652Z,146154.19
2023-05-24T18:20:44.761Z,146197.97
2023-05-24T18:23:11.949Z,146224.75
2023-05-24T18:25:39.128Z,146201.63
2023-05-24T18:28:07.271Z,146224.75
2023-05-24T18:30:34.376Z,146210.16
2023-05-24T18:33:07.217Z,146152.94
2023-05-24T18:35:35.686Z,146224.75
2023-05-24T18:38:03.700Z,146268.59
2023-05-24T18:40:31.052Z,146210.16
2023-05-24T18:42:58.089Z,146236.94
2023-05-24T18:45:25.283Z,146246.66
2023-05-24T18:47:54.019Z,146246.66
2023-05-24T18:50:23.190Z,146212.56
2023-05-24T18:52:50.805Z,146207.69
2023-05-24T18:55:17.940Z,146189.44
2023-05-24T18:57:45.103Z,146053.13
2023-05-24T19:00:12.886Z,146137.13
2023-05-24T19:02:40.446Z,146079.94
2023-05-24T19:05:08.618Z,146030.00
2023-05-24T19:07:36.138Z,146072.63
2023-05-24T19:10:03.966Z,146010.56
2023-05-24T19:12:31.264Z,146005.69
2023-05-24T19:14:58.487Z,145941.25
2023-05-24T19:17:25.707Z,145904.78
2023-05-24T19:19:52.876Z,145935.19
2023-05-24T19:22:20.046Z,145905.97
2023-05-24T19:24:47.220Z,145871.94
2023-05-24T19:27:14.604Z,145871.94
2023-05-24T19:29:41.725Z,145758.88
2023-05-24T19:32:09.003Z,145841.53
2023-05-24T19:34:37.225Z,145803.88
2023-05-24T19:37:04.642Z,145799.00
2023-05-24T19:39:31.718Z,145738.19
2023-05-24T19:41:58.812Z,145801.41
2023-05-24T19:44:26.031Z,145756.44
2023-05-24T19:46:53.125Z,145711.50
2023-05-24T19:49:20.156Z,145719.97
2023-05-24T19:51:47.220Z,145637.31
2023-05-24T19:54:14.802Z,145636.09
2023-05-24T19:56:41.932Z,145687.13
2023-05-24T19:59:09.018Z,145546.19
2023-05-24T20:01:36.184Z,145636.09
2023-05-24T20:04:03.861Z,145609.38
2023-05-24T20:06:31.442Z,145636.09
2023-05-24T20:08:59.658Z,145625.19
2023-05-24T20:11:26.778Z,145585.09
2023-05-24T20:13:55.792Z,145537.69
2023-05-24T20:16:23.330Z,145463.63
2023-05-24T20:18:50.519Z,145459.97
2023-05-24T20:21:18.129Z,145473.31
2023-05-24T20:23:45.356Z,145419.94
2023-05-24T20:26:12.445Z,145356.78
2023-05-24T20:28:39.472Z,145412.63
2023-05-24T20:31:06.578Z,145366.50
2023-05-24T20:33:37.819Z,145334.94
2023-05-24T20:36:05.478Z,145274.25
2023-05-24T20:38:32.569Z,145356.78
2023-05-24T20:40:59.978Z,145364.03
2023-05-24T20:43:27.026Z,145355.53
2023-05-24T20:45:54.200Z,145337.31
2023-05-24T20:48:21.404Z,145347.09
2023-05-24T20:50:48.634Z,145304.56
2023-05-24T20:53:15.862Z,145322.78
2023-05-24T20:55:43.268Z,145307.00
2023-05-24T20:58:14.904Z,145308.22
2023-05-24T21:00:41.966Z,145313.06
2023-05-24T21:03:09.367Z,145293.66
2023-05-24T21:05:37.969Z,145296.06
2023-05-24T21:08:05.115Z,145266.94
2023-05-24T21:10:33.002Z,145242.66
2023-05-24T21:13:00.076Z,145167.41
2023-05-24T21:15:27.186Z,145225.66
2023-05-24T21:17:54.283Z,145211.09
2023-05-24T21:20:21.551Z,145157.69
2023-05-24T21:22:48.794Z,145104.31
2023-05-24T21:25:16.029Z,145128.59
2023-05-24T21:27:43.205Z,145162.53
2023-05-24T21:30:10.766Z,145139.50
2023-05-24T21:32:37.960Z,145160.09
2023-05-24T21:35:05.630Z,145126.16
2023-05-24T21:37:32.660Z,145133.44
2023-05-24T21:39:59.681Z,145121.31
2023-05-24T21:42:26.730Z,145116.44
2023-05-24T21:44:53.822Z,145116.44
2023-05-24T21:47:20.872Z,145065.50
2023-05-24T21:49:47.929Z,145030.34
2023-05-24T21:52:15.011Z,145058.22
2023-05-24T21:54:42.064Z,145063.06
2023-05-24T21:57:09.122Z,145080.06
2023-05-24T21:59:36.141Z,145064.28
2023-05-24T22:02:03.517Z,145038.81
2023-05-24T22:04:30.821Z,144984.25
2023-05-24T22:07:16.129Z,144987.91
2023-05-24T22:09:43.195Z,144959.97
2023-05-24T22:12:10.237Z,145019.44
2023-05-24T22:14:37.304Z,144912.72
2023-05-24T22:17:04.682Z,144968.47
2023-05-24T22:19:39.498Z,144888.47
2023-05-24T22:22:08.702Z,144956.38
2023-05-24T22:24:36.144Z,144936.94
2023-05-24T22:27:03.763Z,144932.09
2023-05-24T22:29:30.848Z,144940.59
2023-05-24T22:31:57.932Z,144949.09
2023-05-24T22:34:28.846Z,144957.56
2023-05-24T22:36:57.381Z,144973.31
2023-05-24T22:39:25.048Z,144924.84
2023-05-24T22:41:53.030Z,144933.34
2023-05-24T22:44:20.319Z,144907.88
2023-05-24T22:46:49.667Z,144883.63
2023-05-24T22:49:19.453Z,144864.22
2023-05-24T22:51:48.084Z,144830.28
2023-05-24T22:54:15.641Z,144844.81
2023-05-24T22:56:43.861Z,144803.63
2023-05-24T22:59:11.310Z,144803.63
2023-05-24T23:01:38.650Z,144747.88
2023-05-24T23:04:19.670Z,144839.97
2023-05-24T23:06:52.189Z,144837.56
2023-05-24T23:09:28.807Z,144813.31
2023-05-24T23:11:58.119Z,144761.22
2023-05-24T23:14:25.223Z,144793.94
2023-05-24T23:16:52.369Z,144757.56
2023-05-24T23:19:19.478Z,144734.56
2023-05-24T23:21:46.599Z,144740.59
2023-05-24T23:24:16.019Z,144746.69
2023-05-24T23:26:43.289Z,144745.44
2023-05-24T23:29:10.479Z,144682.44
2023-05-24T23:31:37.889Z,144716.38
2023-05-24T23:34:05.517Z,144710.34
2023-05-24T23:36:32.901Z,144706.69
2023-05-24T23:39:00.203Z,144672.75
2023-05-24T23:41:27.286Z,144677.59
2023-05-24T23:43:54.373Z,144686.09
2023-05-24T23:46:21.539Z,144684.88
2023-05-24T23:48:48.652Z,144667.88
2023-05-24T23:51:15.761Z,144672.75
2023-05-24T23:53:42.815Z,144690.94
2023-05-24T23:56:09.857Z,144595.19
2023-05-24T23:58:37.506Z,144655.78
